Kaleen Mc Allister — WDB3847 — position and weather

sailwx.info

Track history (hours):
 
Tides and Currents Weather Stations Pressure Air Temp Water Temp Dewpoint Dewpoint Depression Visibility Wind Speed Wind Dir Waves Ship Positions

Kaleen Mc Allister

Owner: MC ALLISTER TOWING & TRANSPORTATION INC, NEW YORK, NY. More information available from US FCC via Universal Licensing System and Coast Guard Vessel Documentation Center.

Last reported at 2015-Aug-31 21:21 UTC. Time now 2015-Aug-31 21:54 UTC.
Position N 39°13' W 076°34'.

Length 20 m; draft 4 m.

Type: Towing. MMSI: 366891960.

Date/timePositionNaut miles runAvg speedWind from/ knotsBaromVisibWave heightAir tempDewpointWater temp
2015-Aug-31 21:21N 39°13' W 076°34'2 2.8
2015-Aug-31 20:31N 39°16' W 076°34'1 0.7
2015-Aug-31 19:32N 39°16' W 076°35'0 0.0
2015-Aug-31 18:33N 39°16' W 076°35'0 0.0
2015-Aug-31 17:33N 39°16' W 076°35'0 0.0
2015-Aug-31 16:33N 39°16' W 076°35'0 0.0
2015-Aug-31 15:33N 39°16' W 076°35'0 0.0
2015-Aug-31 14:33N 39°16' W 076°35'0 0.0
2015-Aug-31 13:34N 39°16' W 076°35'0 0.0
2015-Aug-31 12:33N 39°16' W 076°35'0 0.0
2015-Aug-31 11:33N 39°16' W 076°35'0 0.0
2015-Aug-31 10:33N 39°16' W 076°35'0 0.0
2015-Aug-31 09:30N 39°16' W 076°35'0 0.0
2015-Aug-31 08:34N 39°16' W 076°35'0 0.0
2015-Aug-31 07:34N 39°16' W 076°35'0 0.0
2015-Aug-31 06:33N 39°16' W 076°35'0 0.0
2015-Aug-31 05:34N 39°16' W 076°35'0 0.0
2015-Aug-31 04:33N 39°16' W 076°35'0 0.0
2015-Aug-31 03:34N 39°16' W 076°35'2 1.8
2015-Aug-31 02:09N 39°15' W 076°32'2 3.9
2015-Aug-31 01:33N 39°16' W 076°35'0 0.2
2015-Aug-31 00:33N 39°16' W 076°35'0 0.0
2015-Aug-30 23:30N 39°16' W 076°35'0 0.0
2015-Aug-30 22:33N 39°16' W 076°35'2 1.5
2015-Aug-30 21:05N 39°15' W 076°33'2 3.7
2015-Aug-30 20:33N 39°13' W 076°32'4 0.5
2015-Aug-30 13:23N 39°16' W 076°35'0 0.0
2015-Aug-30 12:33N 39°16' W 076°35'0 0.2
2015-Aug-30 11:32N 39°16' W 076°35'2 2.3
2015-Aug-30 10:31N 39°14' W 076°33'1 0.6
2015-Aug-30 09:28N 39°14' W 076°32'3 2.5
2015-Aug-30 08:20N 39°16' W 076°35'0 0.0
2015-Aug-30 07:27N 39°16' W 076°35'0 0.0
2015-Aug-30 05:31N 39°16' W 076°35'0 0.0
2015-Aug-30 04:30N 39°16' W 076°35'0 0.0
2015-Aug-30 01:11N 39°16' W 076°35'0 0.0
2015-Aug-29 22:23N 39°16' W 076°35'0 0.0
2015-Aug-29 13:29N 39°16' W 076°35'0 0.0
2015-Aug-29 12:34N 39°16' W 076°35'0 0.0
2015-Aug-29 11:34N 39°16' W 076°35'0 0.0
2015-Aug-29 10:32N 39°16' W 076°35'0 0.0
2015-Aug-29 09:33N 39°16' W 076°35'0 0.0
2015-Aug-29 08:31N 39°16' W 076°35'0 0.0
2015-Aug-29 07:34N 39°16' W 076°35'0 0.0
2015-Aug-29 06:32N 39°16' W 076°35'0 0.0
2015-Aug-29 05:33N 39°16' W 076°35'0 0.0
2015-Aug-29 04:33N 39°16' W 076°35'0 0.0
2015-Aug-29 03:32N 39°16' W 076°35'0 0.0
2015-Aug-29 02:33N 39°16' W 076°35'0 0.0
2015-Aug-29 01:34N 39°16' W 076°35'0 0.0
2015-Aug-29 00:33N 39°16' W 076°35'0 0.0
2015-Aug-28 23:34N 39°16' W 076°35'0 0.0
2015-Aug-28 18:29N 39°16' W 076°35'0 0.0
2015-Aug-28 12:34N 39°16' W 076°35'0 0.0
2015-Aug-28 11:32N 39°16' W 076°35'1 0.8
2015-Aug-28 10:33N 39°15' W 076°34'3 2.8
2015-Aug-28 09:34N 39°13' W 076°32'4 3.6
2015-Aug-28 08:33N 39°16' W 076°35'0 0.0
2015-Aug-28 07:33N 39°16' W 076°35'0 0.0
2015-Aug-28 06:34N 39°16' W 076°35'0 0.0
2015-Aug-28 05:33N 39°16' W 076°35'0 0.0
2015-Aug-28 04:33N 39°16' W 076°35'0 0.0
2015-Aug-28 03:33N 39°16' W 076°35'4 2.0
2015-Aug-28 01:33N 39°13' W 076°32'4 4.0
2015-Aug-28 00:33N 39°16' W 076°35'0 0.0
2015-Aug-27 23:33N 39°16' W 076°35'0 0.0
2015-Aug-27 22:31N 39°16' W 076°35'0 0.0
2015-Aug-27 21:33N 39°16' W 076°35'1 0.8
2015-Aug-27 20:09N 39°15' W 076°35'0 0.2
2015-Aug-27 19:31N 39°15' W 076°35'1 1.1
2015-Aug-27 18:33N 39°16' W 076°35'0 0.0
2015-Aug-27 17:27N 39°16' W 076°35'0 0.0
2015-Aug-27 15:33N 39°16' W 076°35'0 0.0
2015-Aug-27 14:33N 39°16' W 076°35'0 0.0
2015-Aug-27 13:33N 39°16' W 076°35'0 0.0
2015-Aug-27 12:33N 39°16' W 076°35'0 0.0
2015-Aug-27 11:33N 39°16' W 076°35'0 0.0
2015-Aug-27 10:28N 39°16' W 076°35'0 0.0
2015-Aug-27 09:33N 39°16' W 076°35'0 0.0
2015-Aug-27 08:33N 39°16' W 076°35'0 0.0
2015-Aug-27 07:33N 39°16' W 076°35'0 0.0
2015-Aug-27 06:32N 39°16' W 076°35'0 0.0
2015-Aug-27 05:33N 39°16' W 076°35'0 0.0
2015-Aug-27 04:33N 39°16' W 076°35'0 0.0
2015-Aug-27 03:33N 39°16' W 076°35'0 0.0
2015-Aug-27 02:30N 39°16' W 076°35'0 0.0
2015-Aug-27 01:32N 39°16' W 076°35'0 0.0
2015-Aug-27 00:33N 39°16' W 076°35'0 0.0
2015-Aug-26 23:24N 39°16' W 076°35'0 0.1
2015-Aug-26 22:31N 39°16' W 076°35'0 0.1
2015-Aug-26 21:33N 39°16' W 076°35'0 0.2
2015-Aug-26 20:33N 39°16' W 076°35'0 0.0
2015-Aug-26 19:33N 39°16' W 076°35'0 0.0
2015-Aug-26 18:33N 39°16' W 076°35'1 0.8
2015-Aug-26 17:33N 39°16' W 076°34'1 0.6
2015-Aug-26 16:18N 39°16' W 076°35'0 0.0
2015-Aug-26 15:32N 39°16' W 076°35'0 0.0
2015-Aug-26 14:26N 39°16' W 076°35'0 0.0
2015-Aug-26 13:33N 39°16' W 076°35'0 0.0
2015-Aug-26 12:33N 39°16' W 076°35'0 0.0
2015-Aug-26 11:32N 39°16' W 076°35'0 0.0
2015-Aug-26 10:27N 39°16' W 076°35'0 0.0
2015-Aug-26 09:33N 39°16' W 076°35'0 0.0
2015-Aug-26 08:33N 39°16' W 076°35'0 0.0
2015-Aug-26 07:33N 39°16' W 076°35'0 0.0
2015-Aug-26 06:30N 39°16' W 076°35'0 0.0
2015-Aug-26 05:33N 39°16' W 076°35'0 0.0
2015-Aug-26 04:28N 39°16' W 076°35'0 0.0
2015-Aug-26 03:33N 39°16' W 076°35'0 0.1
2015-Aug-26 02:33N 39°16' W 076°35'3 2.1
2015-Aug-26 01:20N 39°14' W 076°33'3 3.3
2015-Aug-26 00:33N 39°16' W 076°35'0 0.0
2015-Aug-25 23:30N 39°16' W 076°35'0 0.0
2015-Aug-25 22:33N 39°16' W 076°35'0 0.0
2015-Aug-25 21:33N 39°16' W 076°35'2 2.1
2015-Aug-25 20:25N 39°15' W 076°32'2 2.8
2015-Aug-25 19:33N 39°16' W 076°35'0 0.1
2015-Aug-25 18:33N 39°16' W 076°35'0 0.0
2015-Aug-25 17:23N 39°16' W 076°35'0 0.0
2015-Aug-25 16:23N 39°16' W 076°35'0 0.0
2015-Aug-25 15:33N 39°16' W 076°35'0 0.0
2015-Aug-25 14:33N 39°16' W 076°35'0 0.0
2015-Aug-25 13:31N 39°16' W 076°35'0 0.0
2015-Aug-25 12:34N 39°16' W 076°35'0 0.0
2015-Aug-25 11:34N 39°16' W 076°35'0 0.0
2015-Aug-25 10:34N 39°16' W 076°35'2 1.8
2015-Aug-25 09:34N 39°14' W 076°34'1 1.2
2015-Aug-25 08:34N 39°15' W 076°32'0 0.0
2015-Aug-25 07:33N 39°15' W 076°32'0 0.0
2015-Aug-25 06:32N 39°15' W 076°32'0 0.0
2015-Aug-25 04:28N 39°15' W 076°32'2 1.6
2015-Aug-25 03:29N 39°13' W 076°32'4 4.0
2015-Aug-25 02:33N 39°16' W 076°35'0 0.0
2015-Aug-25 01:33N 39°16' W 076°35'0 0.0
2015-Aug-25 00:33N 39°16' W 076°35'1 0.8
2015-Aug-24 23:30N 39°15' W 076°34'2 1.6
2015-Aug-24 22:30N 39°15' W 076°32'0 0.0
2015-Aug-24 21:21N 39°15' W 076°32'1 1.5
2015-Aug-24 20:32N 39°14' W 076°32'3 3.1
2015-Aug-24 19:30N 39°16' W 076°35'0 0.0
2015-Aug-24 18:30N 39°16' W 076°35'0 0.0
2015-Aug-24 17:33N 39°16' W 076°35'0 0.0
2015-Aug-24 16:33N 39°16' W 076°35'0 0.0
2015-Aug-24 15:33N 39°16' W 076°35'0 0.0
2015-Aug-24 13:27N 39°16' W 076°35'0 0.0
2015-Aug-24 12:30N 39°16' W 076°35'0 0.0
2015-Aug-24 11:33N 39°16' W 076°35'0 0.0
2015-Aug-24 10:33N 39°16' W 076°35'0 0.0
2015-Aug-24 09:32N 39°16' W 076°35'0 0.0
2015-Aug-24 08:29N 39°16' W 076°35'0 0.0
2015-Aug-24 07:32N 39°16' W 076°35'0 0.0
2015-Aug-24 06:34N 39°16' W 076°35'0 0.0
2015-Aug-24 05:34N 39°16' W 076°35'0 0.0
2015-Aug-24 04:34N 39°16' W 076°35'0 0.0
2015-Aug-24 03:33N 39°16' W 076°35'4 3.7
2015-Aug-24 02:28N 39°13' W 076°32'2 2.3
2015-Aug-24 01:34N 39°13' W 076°29'3 2.6
2015-Aug-24 00:33N 39°13' W 076°32'3 3.3
2015-Aug-23 23:33N 39°16' W 076°35'0 0.2
2015-Aug-23 22:33N 39°16' W 076°35'0 0.0
2015-Aug-23 21:26N 39°16' W 076°35'0 0.0
2015-Aug-23 20:31N 39°16' W 076°35'0 0.0
2015-Aug-23 19:34N 39°16' W 076°35'0 0.0
2015-Aug-23 18:33N 39°16' W 076°35'0 0.0
2015-Aug-23 17:33N 39°16' W 076°35'0 0.0
2015-Aug-23 16:31N 39°16' W 076°35'0 0.0
2015-Aug-23 15:33N 39°16' W 076°35'0 0.0
2015-Aug-23 14:33N 39°16' W 076°35'0 0.0
2015-Aug-23 13:34N 39°16' W 076°35'0 0.0
2015-Aug-23 12:34N 39°16' W 076°35'0 0.0
2015-Aug-23 11:33N 39°16' W 076°35'0 0.0
2015-Aug-23 10:34N 39°16' W 076°35'0 0.0
2015-Aug-23 09:33N 39°16' W 076°35'0 0.0
2015-Aug-23 08:33N 39°16' W 076°35'0 0.0
2015-Aug-23 07:33N 39°16' W 076°35'0 0.0
2015-Aug-23 06:33N 39°16' W 076°35'0 0.0
2015-Aug-23 05:34N 39°16' W 076°35'0 0.0
2015-Aug-23 04:30N 39°16' W 076°35'0 0.0
2015-Aug-23 03:34N 39°16' W 076°35'0 0.0
2015-Aug-23 02:33N 39°16' W 076°35'0 0.0
2015-Aug-23 01:33N 39°16' W 076°35'0 0.0
2015-Aug-23 00:33N 39°16' W 076°35'0 0.0
2015-Aug-22 23:33N 39°16' W 076°35'0 0.0
2015-Aug-22 22:34N 39°16' W 076°35'1 1.3
2015-Aug-22 21:30N 39°15' W 076°33'1 1.5
2015-Aug-22 20:33N 39°16' W 076°35'0 0.0
2015-Aug-22 19:34N 39°16' W 076°35'0 0.0
2015-Aug-22 18:33N 39°16' W 076°35'0 0.0
2015-Aug-22 17:34N 39°16' W 076°35'0 0.0
2015-Aug-22 16:34N 39°16' W 076°35'0 0.0
2015-Aug-22 15:33N 39°16' W 076°35'0 0.0
2015-Aug-22 14:34N 39°16' W 076°35'0 0.0
2015-Aug-22 13:33N 39°16' W 076°35'0 0.0
2015-Aug-22 12:34N 39°16' W 076°35'0 0.0
2015-Aug-22 11:34N 39°16' W 076°35'0 0.0
2015-Aug-22 10:33N 39°16' W 076°35'0 0.0
2015-Aug-22 09:33N 39°16' W 076°35'0 0.0
2015-Aug-22 08:34N 39°16' W 076°35'0 0.0
2015-Aug-22 07:33N 39°16' W 076°35'0 0.0
2015-Aug-22 06:34N 39°16' W 076°35'0 0.0
2015-Aug-22 05:33N 39°16' W 076°35'0 0.0
2015-Aug-22 04:33N 39°16' W 076°35'0 0.0
2015-Aug-22 03:34N 39°16' W 076°35'0 0.0
2015-Aug-22 02:34N 39°16' W 076°35'0 0.0
2015-Aug-22 01:34N 39°16' W 076°35'0 0.0
2015-Aug-22 00:33N 39°16' W 076°35'0 0.0
2015-Aug-21 23:33N 39°16' W 076°35'0 0.0
2015-Aug-21 22:33N 39°16' W 076°35'0 0.0
2015-Aug-21 21:33N 39°16' W 076°35'  
Track history (hours):
 
Tides and Currents Weather Stations Pressure Air Temp Water Temp Dewpoint Dewpoint Depression Visibility Wind Speed Wind Dir Waves Ship Positions

Kaleen Mc Allister

Owner: MC ALLISTER TOWING & TRANSPORTATION INC, NEW YORK, NY. More information available from US FCC via Universal Licensing System and Coast Guard Vessel Documentation Center.

Last reported at 2015-Aug-31 21:21 UTC. Time now 2015-Aug-31 21:54 UTC.
Position N 39°13' W 076°34'.

Length 20 m; draft 4 m.

Type: Towing. MMSI: 366891960.

Date/timePositionNaut miles runAvg speedWind from/ knotsBaromVisibWave heightAir tempDewpointWater temp
2015-Aug-31 21:21N 39°13' W 076°34'2 2.8
2015-Aug-31 20:31N 39°16' W 076°34'1 0.7
2015-Aug-31 19:32N 39°16' W 076°35'0 0.0
2015-Aug-31 18:33N 39°16' W 076°35'0 0.0
2015-Aug-31 17:33N 39°16' W 076°35'0 0.0
2015-Aug-31 16:33N 39°16' W 076°35'0 0.0
2015-Aug-31 15:33N 39°16' W 076°35'0 0.0
2015-Aug-31 14:33N 39°16' W 076°35'0 0.0
2015-Aug-31 13:34N 39°16' W 076°35'0 0.0
2015-Aug-31 12:33N 39°16' W 076°35'0 0.0
2015-Aug-31 11:33N 39°16' W 076°35'0 0.0
2015-Aug-31 10:33N 39°16' W 076°35'0 0.0
2015-Aug-31 09:30N 39°16' W 076°35'0 0.0
2015-Aug-31 08:34N 39°16' W 076°35'0 0.0
2015-Aug-31 07:34N 39°16' W 076°35'0 0.0
2015-Aug-31 06:33N 39°16' W 076°35'0 0.0
2015-Aug-31 05:34N 39°16' W 076°35'0 0.0
2015-Aug-31 04:33N 39°16' W 076°35'0 0.0
2015-Aug-31 03:34N 39°16' W 076°35'2 1.8
2015-Aug-31 02:09N 39°15' W 076°32'2 3.9
2015-Aug-31 01:33N 39°16' W 076°35'0 0.2
2015-Aug-31 00:33N 39°16' W 076°35'0 0.0
2015-Aug-30 23:30N 39°16' W 076°35'0 0.0
2015-Aug-30 22:33N 39°16' W 076°35'2 1.5
2015-Aug-30 21:05N 39°15' W 076°33'2 3.7
2015-Aug-30 20:33N 39°13' W 076°32'4 0.5
2015-Aug-30 13:23N 39°16' W 076°35'0 0.0
2015-Aug-30 12:33N 39°16' W 076°35'0 0.2
2015-Aug-30 11:32N 39°16' W 076°35'2 2.3
2015-Aug-30 10:31N 39°14' W 076°33'1 0.6
2015-Aug-30 09:28N 39°14' W 076°32'3 2.5
2015-Aug-30 08:20N 39°16' W 076°35'0 0.0
2015-Aug-30 07:27N 39°16' W 076°35'0 0.0
2015-Aug-30 05:31N 39°16' W 076°35'0 0.0
2015-Aug-30 04:30N 39°16' W 076°35'0 0.0
2015-Aug-30 01:11N 39°16' W 076°35'0 0.0
2015-Aug-29 22:23N 39°16' W 076°35'0 0.0
2015-Aug-29 13:29N 39°16' W 076°35'0 0.0
2015-Aug-29 12:34N 39°16' W 076°35'0 0.0
2015-Aug-29 11:34N 39°16' W 076°35'0 0.0
2015-Aug-29 10:32N 39°16' W 076°35'0 0.0
2015-Aug-29 09:33N 39°16' W 076°35'0 0.0
2015-Aug-29 08:31N 39°16' W 076°35'0 0.0
2015-Aug-29 07:34N 39°16' W 076°35'0 0.0
2015-Aug-29 06:32N 39°16' W 076°35'0 0.0
2015-Aug-29 05:33N 39°16' W 076°35'0 0.0
2015-Aug-29 04:33N 39°16' W 076°35'0 0.0
2015-Aug-29 03:32N 39°16' W 076°35'0 0.0
2015-Aug-29 02:33N 39°16' W 076°35'0 0.0
2015-Aug-29 01:34N 39°16' W 076°35'0 0.0
2015-Aug-29 00:33N 39°16' W 076°35'0 0.0
2015-Aug-28 23:34N 39°16' W 076°35'0 0.0
2015-Aug-28 18:29N 39°16' W 076°35'0 0.0
2015-Aug-28 12:34N 39°16' W 076°35'0 0.0
2015-Aug-28 11:32N 39°16' W 076°35'1 0.8
2015-Aug-28 10:33N 39°15' W 076°34'3 2.8
2015-Aug-28 09:34N 39°13' W 076°32'4 3.6
2015-Aug-28 08:33N 39°16' W 076°35'0 0.0
2015-Aug-28 07:33N 39°16' W 076°35'0 0.0
2015-Aug-28 06:34N 39°16' W 076°35'0 0.0
2015-Aug-28 05:33N 39°16' W 076°35'0 0.0
2015-Aug-28 04:33N 39°16' W 076°35'0 0.0
2015-Aug-28 03:33N 39°16' W 076°35'4 2.0
2015-Aug-28 01:33N 39°13' W 076°32'4 4.0
2015-Aug-28 00:33N 39°16' W 076°35'0 0.0
2015-Aug-27 23:33N 39°16' W 076°35'0 0.0
2015-Aug-27 22:31N 39°16' W 076°35'0 0.0
2015-Aug-27 21:33N 39°16' W 076°35'1 0.8
2015-Aug-27 20:09N 39°15' W 076°35'0 0.2
2015-Aug-27 19:31N 39°15' W 076°35'1 1.1
2015-Aug-27 18:33N 39°16' W 076°35'0 0.0
2015-Aug-27 17:27N 39°16' W 076°35'0 0.0
2015-Aug-27 15:33N 39°16' W 076°35'0 0.0
2015-Aug-27 14:33N 39°16' W 076°35'0 0.0
2015-Aug-27 13:33N 39°16' W 076°35'0 0.0
2015-Aug-27 12:33N 39°16' W 076°35'0 0.0
2015-Aug-27 11:33N 39°16' W 076°35'0 0.0
2015-Aug-27 10:28N 39°16' W 076°35'0 0.0
2015-Aug-27 09:33N 39°16' W 076°35'0 0.0
2015-Aug-27 08:33N 39°16' W 076°35'0 0.0
2015-Aug-27 07:33N 39°16' W 076°35'0 0.0
2015-Aug-27 06:32N 39°16' W 076°35'0 0.0
2015-Aug-27 05:33N 39°16' W 076°35'0 0.0
2015-Aug-27 04:33N 39°16' W 076°35'0 0.0
2015-Aug-27 03:33N 39°16' W 076°35'0 0.0
2015-Aug-27 02:30N 39°16' W 076°35'0 0.0
2015-Aug-27 01:32N 39°16' W 076°35'0 0.0
2015-Aug-27 00:33N 39°16' W 076°35'0 0.0
2015-Aug-26 23:24N 39°16' W 076°35'0 0.1
2015-Aug-26 22:31N 39°16' W 076°35'0 0.1
2015-Aug-26 21:33N 39°16' W 076°35'0 0.2
2015-Aug-26 20:33N 39°16' W 076°35'0 0.0
2015-Aug-26 19:33N 39°16' W 076°35'0 0.0
2015-Aug-26 18:33N 39°16' W 076°35'1 0.8
2015-Aug-26 17:33N 39°16' W 076°34'1 0.6
2015-Aug-26 16:18N 39°16' W 076°35'0 0.0
2015-Aug-26 15:32N 39°16' W 076°35'0 0.0
2015-Aug-26 14:26N 39°16' W 076°35'0 0.0
2015-Aug-26 13:33N 39°16' W 076°35'0 0.0
2015-Aug-26 12:33N 39°16' W 076°35'0 0.0
2015-Aug-26 11:32N 39°16' W 076°35'0 0.0
2015-Aug-26 10:27N 39°16' W 076°35'0 0.0
2015-Aug-26 09:33N 39°16' W 076°35'0 0.0
2015-Aug-26 08:33N 39°16' W 076°35'0 0.0
2015-Aug-26 07:33N 39°16' W 076°35'0 0.0
2015-Aug-26 06:30N 39°16' W 076°35'0 0.0
2015-Aug-26 05:33N 39°16' W 076°35'0 0.0
2015-Aug-26 04:28N 39°16' W 076°35'0 0.0
2015-Aug-26 03:33N 39°16' W 076°35'0 0.1
2015-Aug-26 02:33N 39°16' W 076°35'3 2.1
2015-Aug-26 01:20N 39°14' W 076°33'3 3.3
2015-Aug-26 00:33N 39°16' W 076°35'0 0.0
2015-Aug-25 23:30N 39°16' W 076°35'0 0.0
2015-Aug-25 22:33N 39°16' W 076°35'0 0.0
2015-Aug-25 21:33N 39°16' W 076°35'2 2.1
2015-Aug-25 20:25N 39°15' W 076°32'2 2.8
2015-Aug-25 19:33N 39°16' W 076°35'0 0.1
2015-Aug-25 18:33N 39°16' W 076°35'0 0.0
2015-Aug-25 17:23N 39°16' W 076°35'0 0.0
2015-Aug-25 16:23N 39°16' W 076°35'0 0.0
2015-Aug-25 15:33N 39°16' W 076°35'0 0.0
2015-Aug-25 14:33N 39°16' W 076°35'0 0.0
2015-Aug-25 13:31N 39°16' W 076°35'0 0.0
2015-Aug-25 12:34N 39°16' W 076°35'0 0.0
2015-Aug-25 11:34N 39°16' W 076°35'0 0.0
2015-Aug-25 10:34N 39°16' W 076°35'2 1.8
2015-Aug-25 09:34N 39°14' W 076°34'1 1.2
2015-Aug-25 08:34N 39°15' W 076°32'0 0.0
2015-Aug-25 07:33N 39°15' W 076°32'0 0.0
2015-Aug-25 06:32N 39°15' W 076°32'0 0.0
2015-Aug-25 04:28N 39°15' W 076°32'2 1.6
2015-Aug-25 03:29N 39°13' W 076°32'4 4.0
2015-Aug-25 02:33N 39°16' W 076°35'0 0.0
2015-Aug-25 01:33N 39°16' W 076°35'0 0.0
2015-Aug-25 00:33N 39°16' W 076°35'1 0.8
2015-Aug-24 23:30N 39°15' W 076°34'2 1.6
2015-Aug-24 22:30N 39°15' W 076°32'0 0.0
2015-Aug-24 21:21N 39°15' W 076°32'1 1.5
2015-Aug-24 20:32N 39°14' W 076°32'3 3.1
2015-Aug-24 19:30N 39°16' W 076°35'0 0.0
2015-Aug-24 18:30N 39°16' W 076°35'0 0.0
2015-Aug-24 17:33N 39°16' W 076°35'0 0.0
2015-Aug-24 16:33N 39°16' W 076°35'0 0.0
2015-Aug-24 15:33N 39°16' W 076°35'0 0.0
2015-Aug-24 13:27N 39°16' W 076°35'0 0.0
2015-Aug-24 12:30N 39°16' W 076°35'0 0.0
2015-Aug-24 11:33N 39°16' W 076°35'0 0.0
2015-Aug-24 10:33N 39°16' W 076°35'0 0.0
2015-Aug-24 09:32N 39°16' W 076°35'0 0.0
2015-Aug-24 08:29N 39°16' W 076°35'0 0.0
2015-Aug-24 07:32N 39°16' W 076°35'0 0.0
2015-Aug-24 06:34N 39°16' W 076°35'0 0.0
2015-Aug-24 05:34N 39°16' W 076°35'0 0.0
2015-Aug-24 04:34N 39°16' W 076°35'0 0.0
2015-Aug-24 03:33N 39°16' W 076°35'4 3.7
2015-Aug-24 02:28N 39°13' W 076°32'2 2.3
2015-Aug-24 01:34N 39°13' W 076°29'3 2.6
2015-Aug-24 00:33N 39°13' W 076°32'3 3.3
2015-Aug-23 23:33N 39°16' W 076°35'0 0.2
2015-Aug-23 22:33N 39°16' W 076°35'0 0.0
2015-Aug-23 21:26N 39°16' W 076°35'0 0.0
2015-Aug-23 20:31N 39°16' W 076°35'0 0.0
2015-Aug-23 19:34N 39°16' W 076°35'0 0.0
2015-Aug-23 18:33N 39°16' W 076°35'0 0.0
2015-Aug-23 17:33N 39°16' W 076°35'0 0.0
2015-Aug-23 16:31N 39°16' W 076°35'0 0.0
2015-Aug-23 15:33N 39°16' W 076°35'0 0.0
2015-Aug-23 14:33N 39°16' W 076°35'0 0.0
2015-Aug-23 13:34N 39°16' W 076°35'0 0.0
2015-Aug-23 12:34N 39°16' W 076°35'0 0.0
2015-Aug-23 11:33N 39°16' W 076°35'0 0.0
2015-Aug-23 10:34N 39°16' W 076°35'0 0.0
2015-Aug-23 09:33N 39°16' W 076°35'0 0.0
2015-Aug-23 08:33N 39°16' W 076°35'0 0.0
2015-Aug-23 07:33N 39°16' W 076°35'0 0.0
2015-Aug-23 06:33N 39°16' W 076°35'0 0.0
2015-Aug-23 05:34N 39°16' W 076°35'0 0.0
2015-Aug-23 04:30N 39°16' W 076°35'0 0.0
2015-Aug-23 03:34N 39°16' W 076°35'0 0.0
2015-Aug-23 02:33N 39°16' W 076°35'0 0.0
2015-Aug-23 01:33N 39°16' W 076°35'0 0.0
2015-Aug-23 00:33N 39°16' W 076°35'0 0.0
2015-Aug-22 23:33N 39°16' W 076°35'0 0.0
2015-Aug-22 22:34N 39°16' W 076°35'1 1.3
2015-Aug-22 21:30N 39°15' W 076°33'1 1.5
2015-Aug-22 20:33N 39°16' W 076°35'0 0.0
2015-Aug-22 19:34N 39°16' W 076°35'0 0.0
2015-Aug-22 18:33N 39°16' W 076°35'0 0.0
2015-Aug-22 17:34N 39°16' W 076°35'0 0.0
2015-Aug-22 16:34N 39°16' W 076°35'0 0.0
2015-Aug-22 15:33N 39°16' W 076°35'0 0.0
2015-Aug-22 14:34N 39°16' W 076°35'0 0.0
2015-Aug-22 13:33N 39°16' W 076°35'0 0.0
2015-Aug-22 12:34N 39°16' W 076°35'0 0.0
2015-Aug-22 11:34N 39°16' W 076°35'0 0.0
2015-Aug-22 10:33N 39°16' W 076°35'0 0.0
2015-Aug-22 09:33N 39°16' W 076°35'0 0.0
2015-Aug-22 08:34N 39°16' W 076°35'0 0.0
2015-Aug-22 07:33N 39°16' W 076°35'0 0.0
2015-Aug-22 06:34N 39°16' W 076°35'0 0.0
2015-Aug-22 05:33N 39°16' W 076°35'0 0.0
2015-Aug-22 04:33N 39°16' W 076°35'0 0.0
2015-Aug-22 03:34N 39°16' W 076°35'0 0.0
2015-Aug-22 02:34N 39°16' W 076°35'0 0.0
2015-Aug-22 01:34N 39°16' W 076°35'0 0.0
2015-Aug-22 00:33N 39°16' W 076°35'0 0.0
2015-Aug-21 23:33N 39°16' W 076°35'0 0.0
2015-Aug-21 22:33N 39°16' W 076°35'0 0.0
2015-Aug-21 21:33N 39°16' W 076°35'  

Dump ship's entire track history